KDLN

Dillon Airport

Dillon, Montana, USA
METAR KDLN 150053Z AUTO 04005KT 10SM CLR 27/M02 A3002 RMK AO2 SLP116 T02721017
Observed Flight Rules
Aug-15 @ 00:53 UTC (12 minutes ago) Visual Flight Rules
Wind Visibility Clouds
40° at 5 knots 10 miles
  • Clear skies
Temperatures Readings
Current 27°C / 81°F
Dewpoint -2°C / 28°F
Humidity 15%
Altimeter 30.02" Hg
Pressure 1011.6 hPa
Elevation 1591
METAR KDLN 150053Z AUTO 04005KT 10SM CLR 27/M02 A3002 RMK AO2 SLP116 T02721017
Observed Flight Rules
Aug-15 @ 00:53 UTC
(12 minutes ago)
VFR
Wind Visibility
40° at 5 knots 10 miles
Clouds
  • Clear skies
Temperature Dewpoint
27°C / 81°F -2°C / 28°F
Humidity Altimeter Pressure
15% 30.02" Hg 1011.6 hPa